createdAt,value
2019-02-05T00:01:13.745Z,84.23
2019-02-05T00:03:42.905Z,84.08
2019-02-05T00:06:12.047Z,83.99
2019-02-05T00:08:41.518Z,83.95
2019-02-05T00:11:10.713Z,83.92
2019-02-05T00:13:39.891Z,83.98
2019-02-05T00:16:09.046Z,84.00
2019-02-05T00:18:38.485Z,83.86
2019-02-05T00:21:07.658Z,83.88
2019-02-05T00:23:37.091Z,83.94
2019-02-05T00:26:06.703Z,83.84
2019-02-05T00:28:35.993Z,83.84
2019-02-05T00:31:07.078Z,83.89
2019-02-05T00:33:36.204Z,83.81
2019-02-05T00:36:07.171Z,83.82
2019-02-05T00:38:36.330Z,83.79
2019-02-05T00:41:05.810Z,83.84
2019-02-05T00:43:35.408Z,83.87
2019-02-05T00:46:04.651Z,83.82
2019-02-05T00:48:33.808Z,83.85
2019-02-05T00:51:03.057Z,83.87
2019-02-05T00:53:32.207Z,83.87
2019-02-05T00:56:05.217Z,83.84
2019-02-05T00:58:34.409Z,83.83
2019-02-05T01:01:03.913Z,83.81
2019-02-05T01:03:33.353Z,83.86
2019-02-05T01:06:02.802Z,83.92
2019-02-05T01:08:32.202Z,84.08
2019-02-05T01:11:01.519Z,84.19
2019-02-05T01:13:30.701Z,84.33
2019-02-05T01:15:59.978Z,84.52
2019-02-05T01:18:29.245Z,84.60
2019-02-05T01:20:58.579Z,84.64
2019-02-05T01:23:28.003Z,84.79
2019-02-05T01:25:57.126Z,84.84
2019-02-05T01:28:26.566Z,84.93
2019-02-05T01:30:55.724Z,85.00
2019-02-05T01:33:24.928Z,85.05
2019-02-05T01:35:54.196Z,85.08
2019-02-05T01:38:23.421Z,85.07
2019-02-05T01:40:52.653Z,85.09
2019-02-05T01:43:21.790Z,85.10
2019-02-05T01:45:51.171Z,85.15
2019-02-05T01:48:20.327Z,85.23
2019-02-05T01:50:49.578Z,85.25
2019-02-05T01:53:18.783Z,85.30
2019-02-05T01:55:48.136Z,85.38
2019-02-05T01:58:17.251Z,85.44
2019-02-05T02:00:46.407Z,85.50
2019-02-05T02:03:15.678Z,85.57
2019-02-05T02:05:45.044Z,85.68
2019-02-05T02:08:14.470Z,85.74
2019-02-05T02:10:43.698Z,85.76
2019-02-05T02:13:12.840Z,85.83
2019-02-05T02:15:42.037Z,85.87
2019-02-05T02:18:11.247Z,85.94
2019-02-05T02:20:40.699Z,85.96
2019-02-05T02:23:09.899Z,85.99
2019-02-05T02:25:39.064Z,86.05
2019-02-05T02:28:08.237Z,86.13
2019-02-05T02:30:38.979Z,86.18
2019-02-05T02:33:08.486Z,86.22
2019-02-05T02:35:38.033Z,86.29
2019-02-05T02:38:07.192Z,86.34
2019-02-05T02:40:36.356Z,86.40
2019-02-05T02:43:05.471Z,86.46
2019-02-05T02:45:34.836Z,86.51
2019-02-05T02:48:04.291Z,86.56
2019-02-05T02:50:33.664Z,86.58
2019-02-05T02:53:02.923Z,86.62
2019-02-05T02:55:32.091Z,86.65
2019-02-05T02:58:01.250Z,86.67
2019-02-05T03:00:30.468Z,86.71
2019-02-05T03:02:59.627Z,86.72
2019-02-05T03:05:29.294Z,86.72
2019-02-05T03:07:58.466Z,86.75
2019-02-05T03:10:29.599Z,86.79
2019-02-05T03:12:59.205Z,86.83
2019-02-05T03:15:28.357Z,86.89
2019-02-05T03:17:57.653Z,86.95
2019-02-05T03:20:26.846Z,87.00
2019-02-05T03:22:56.525Z,87.08
2019-02-05T03:25:26.195Z,87.17
2019-02-05T03:27:55.677Z,87.22
2019-02-05T03:30:25.618Z,87.29
2019-02-05T03:32:55.591Z,87.32
2019-02-05T03:35:24.910Z,87.38
2019-02-05T03:37:54.101Z,87.40
2019-02-05T03:41:10.354Z,87.45
2019-02-05T03:43:40.489Z,87.48
2019-02-05T03:46:14.534Z,87.56
2019-02-05T03:48:44.221Z,87.58
2019-02-05T03:51:53.256Z,87.63
2019-02-05T03:54:49.944Z,87.68
2019-02-05T03:57:43.836Z,87.71
2019-02-05T04:00:34.798Z,87.75
2019-02-05T04:03:32.413Z,87.82
2019-02-05T04:06:10.482Z,87.84
2019-02-05T04:09:09.768Z,87.87
2019-02-05T04:12:06.051Z,87.91
2019-02-05T04:15:12.307Z,87.95
2019-02-05T04:18:11.425Z,87.97
2019-02-05T04:21:34.226Z,88.02
2019-02-05T04:24:33.363Z,88.08
2019-02-05T04:27:43.827Z,88.12
2019-02-05T04:30:48.858Z,88.17
2019-02-05T04:34:04.138Z,88.18
2019-02-05T04:37:22.045Z,88.21
2019-02-05T04:40:23.198Z,88.25
2019-02-05T04:43:13.022Z,88.28
2019-02-05T04:46:02.893Z,88.33
2019-02-05T04:49:24.826Z,88.34
2019-02-05T04:52:44.135Z,88.38
2019-02-05T04:55:57.915Z,88.40
2019-02-05T04:59:10.752Z,88.42
2019-02-05T05:02:11.157Z,88.47
2019-02-05T05:05:02.046Z,88.48
2019-02-05T05:08:18.846Z,88.50
2019-02-05T05:10:48.066Z,88.51
2019-02-05T05:13:17.227Z,88.53
2019-02-05T05:15:46.395Z,88.54
2019-02-05T05:18:15.734Z,88.54
2019-02-05T05:20:45.018Z,88.53
2019-02-05T05:23:14.149Z,88.55
2019-02-05T05:25:43.428Z,88.53
2019-02-05T05:28:12.674Z,88.52
2019-02-05T05:30:41.858Z,88.53
2019-02-05T05:33:11.420Z,88.52
2019-02-05T05:35:44.338Z,88.50
2019-02-05T05:38:11.537Z,88.50
2019-02-05T05:40:40.691Z,88.50
2019-02-05T05:43:09.837Z,88.48
2019-02-05T05:45:38.986Z,88.49
2019-02-05T05:48:08.179Z,88.47
2019-02-05T05:50:37.394Z,88.44
2019-02-05T05:53:06.838Z,88.43
2019-02-05T05:55:36.018Z,88.43
2019-02-05T05:58:05.457Z,88.39
2019-02-05T06:00:34.658Z,88.37
2019-02-05T06:03:03.897Z,88.35
2019-02-05T06:05:33.382Z,88.33
2019-02-05T06:08:02.813Z,88.33
2019-02-05T06:10:32.038Z,88.32
2019-02-05T06:13:01.182Z,88.32
2019-02-05T06:15:30.375Z,88.33
2019-02-05T06:17:59.555Z,88.29
2019-02-05T06:20:28.851Z,88.27
2019-02-05T06:22:57.967Z,88.25
2019-02-05T06:25:27.211Z,88.27
2019-02-05T06:27:56.540Z,88.25
2019-02-05T06:30:25.768Z,88.22
2019-02-05T06:32:54.971Z,88.22
2019-02-05T06:35:24.325Z,88.22
2019-02-05T06:37:53.957Z,88.18
2019-02-05T06:40:23.325Z,88.15
2019-02-05T06:42:52.561Z,88.10
2019-02-05T06:45:21.732Z,88.07
2019-02-05T06:47:50.949Z,88.03
2019-02-05T06:50:20.191Z,88.00
2019-02-05T06:52:49.507Z,87.98
2019-02-05T06:55:18.644Z,87.99
2019-02-05T06:57:47.857Z,87.97
2019-02-05T07:00:26.402Z,88.00
2019-02-05T07:02:55.564Z,88.01
2019-02-05T07:05:24.745Z,88.04
2019-02-05T07:07:54.348Z,88.07
2019-02-05T07:10:23.794Z,88.08
2019-02-05T07:12:53.008Z,88.08
2019-02-05T07:15:22.225Z,88.10
2019-02-05T07:17:51.399Z,88.09
2019-02-05T07:20:20.635Z,88.08
2019-02-05T07:22:49.932Z,88.07
2019-02-05T07:25:19.421Z,88.06
2019-02-05T07:27:48.660Z,88.02
2019-02-05T07:30:22.759Z,88.00
2019-02-05T07:32:51.926Z,88.01
2019-02-05T07:35:21.129Z,87.99
2019-02-05T07:37:50.553Z,87.99
2019-02-05T07:40:20.371Z,87.97
2019-02-05T07:42:49.589Z,87.93
2019-02-05T07:45:20.315Z,87.91
2019-02-05T07:47:49.956Z,87.88
2019-02-05T07:50:24.320Z,87.94
2019-02-05T07:52:53.544Z,88.07
2019-02-05T07:55:23.166Z,88.13
2019-02-05T07:57:52.540Z,88.17
2019-02-05T08:00:24.278Z,88.15
2019-02-05T08:02:53.723Z,88.18
2019-02-05T08:05:28.717Z,88.15
2019-02-05T08:07:58.482Z,88.19
2019-02-05T08:10:27.666Z,88.24
2019-02-05T08:12:56.949Z,88.20
2019-02-05T08:15:28.459Z,88.18
2019-02-05T08:17:57.787Z,88.13
2019-02-05T08:20:27.483Z,88.07
2019-02-05T08:22:57.185Z,88.02
2019-02-05T08:25:26.364Z,88.01
2019-02-05T08:27:55.960Z,88.01
2019-02-05T08:30:30.902Z,87.99
2019-02-05T08:33:00.095Z,87.97
2019-02-05T08:35:29.430Z,87.92
2019-02-05T08:37:58.722Z,87.88
2019-02-05T08:40:27.911Z,87.82
2019-02-05T08:42:57.123Z,87.81
2019-02-05T08:45:28.094Z,87.82
2019-02-05T08:47:57.314Z,87.78
2019-02-05T08:50:28.246Z,87.77
2019-02-05T08:52:57.477Z,87.74
2019-02-05T08:55:26.667Z,87.70
2019-02-05T08:57:58.211Z,87.65
2019-02-05T09:00:30.179Z,87.59
2019-02-05T09:02:59.389Z,87.48
2019-02-05T09:05:28.546Z,87.47
2019-02-05T09:07:57.809Z,87.38
2019-02-05T09:10:29.605Z,87.45
2019-02-05T09:12:58.821Z,87.45
2019-02-05T09:15:29.701Z,87.31
2019-02-05T09:17:59.309Z,87.18
2019-02-05T09:20:29.944Z,87.11
2019-02-05T09:22:59.166Z,87.17
2019-02-05T09:25:28.394Z,87.17
2019-02-05T09:27:57.657Z,87.05
2019-02-05T09:30:29.140Z,87.05
2019-02-05T09:33:00.094Z,87.01
2019-02-05T09:35:29.256Z,86.94
2019-02-05T09:38:04.736Z,86.88
2019-02-05T09:40:34.151Z,86.85
2019-02-05T09:43:03.528Z,86.72
2019-02-05T09:45:33.147Z,86.73
2019-02-05T09:48:02.641Z,86.71
2019-02-05T09:50:44.321Z,86.72
2019-02-05T09:53:04.254Z,86.64
2019-02-05T09:55:35.974Z,86.49
2019-02-05T09:58:04.578Z,86.49
2019-02-05T10:00:36.095Z,86.38
2019-02-05T10:03:06.406Z,86.31
2019-02-05T10:05:35.636Z,86.25
2019-02-05T10:08:05.116Z,86.28
2019-02-05T10:10:34.455Z,86.24
2019-02-05T10:13:03.939Z,86.24
2019-02-05T10:15:35.009Z,86.26
2019-02-05T10:18:04.661Z,86.28
2019-02-05T10:20:33.910Z,86.18
2019-02-05T10:23:05.270Z,86.09
2019-02-05T10:25:34.447Z,86.09
2019-02-05T10:28:03.687Z,86.15
2019-02-05T10:30:38.095Z,86.05
2019-02-05T10:33:07.980Z,85.94
2019-02-05T10:35:37.232Z,85.95
2019-02-05T10:38:06.846Z,85.98
2019-02-05T10:40:36.188Z,85.79
2019-02-05T10:43:06.528Z,85.59
2019-02-05T10:45:36.250Z,85.46
2019-02-05T10:48:06.967Z,85.28
2019-02-05T10:50:36.196Z,85.23
2019-02-05T10:53:05.649Z,84.97
2019-02-05T10:55:34.901Z,84.84
2019-02-05T10:58:04.112Z,84.49
2019-02-05T11:00:33.502Z,84.37
2019-02-05T11:03:03.644Z,84.22
2019-02-05T11:05:33.118Z,83.92
2019-02-05T11:08:03.149Z,83.78
2019-02-05T11:10:33.688Z,83.50
2019-02-05T11:13:03.022Z,83.48
2019-02-05T11:15:32.985Z,83.46
2019-02-05T11:18:02.636Z,83.45
2019-02-05T11:20:32.279Z,83.32
2019-02-05T11:23:02.324Z,82.98
2019-02-05T11:25:31.571Z,82.78
2019-02-05T11:28:02.563Z,82.71
2019-02-05T11:30:36.985Z,82.61
2019-02-05T11:33:06.333Z,82.50
2019-02-05T11:35:35.872Z,82.27
2019-02-05T11:38:06.075Z,82.08
2019-02-05T11:40:36.097Z,81.80
2019-02-05T11:43:05.568Z,81.74
2019-02-05T11:45:34.733Z,81.72
2019-02-05T11:48:04.525Z,81.82
2019-02-05T11:50:34.135Z,81.75
2019-02-05T11:53:03.452Z,82.01
2019-02-05T11:55:33.318Z,82.01
2019-02-05T11:58:02.512Z,81.81
2019-02-05T12:00:35.298Z,81.84
2019-02-05T12:03:05.072Z,81.42
2019-02-05T12:05:34.727Z,81.27
2019-02-05T12:08:04.215Z,81.29
2019-02-05T12:10:33.487Z,81.11
2019-02-05T12:13:02.807Z,81.12
2019-02-05T12:15:32.000Z,81.05
2019-02-05T12:18:02.160Z,80.76
2019-02-05T12:20:31.392Z,80.71
2019-02-05T12:23:03.040Z,80.47
2019-02-05T12:25:32.329Z,79.94
2019-02-05T12:28:02.928Z,80.10
2019-02-05T12:30:44.556Z,80.21
2019-02-05T12:33:06.463Z,80.12
2019-02-05T12:35:35.829Z,80.28
2019-02-05T12:38:05.948Z,80.22
2019-02-05T12:40:35.716Z,80.25
2019-02-05T12:43:05.576Z,79.92
2019-02-05T12:45:35.366Z,80.03
2019-02-05T12:48:04.598Z,80.12
2019-02-05T12:50:35.015Z,79.53
2019-02-05T12:53:04.635Z,79.49
2019-02-05T12:55:33.927Z,79.43
2019-02-05T12:58:03.124Z,79.18
2019-02-05T13:00:37.983Z,79.97
2019-02-05T13:03:08.090Z,79.01
2019-02-05T13:05:37.344Z,79.04
2019-02-05T13:08:07.048Z,79.09
2019-02-05T13:10:38.099Z,78.75
2019-02-05T13:13:08.211Z,78.97
2019-02-05T13:15:37.555Z,79.01
2019-02-05T13:18:07.308Z,78.86
2019-02-05T13:20:36.566Z,79.14
2019-02-05T13:23:06.686Z,79.19
2019-02-05T13:25:36.014Z,78.57
2019-02-05T13:28:07.096Z,78.58
2019-02-05T13:30:37.323Z,78.49
2019-02-05T13:33:07.554Z,78.37
2019-02-05T13:35:37.061Z,78.26
2019-02-05T13:38:06.878Z,78.18
2019-02-05T13:40:36.218Z,77.94
2019-02-05T13:43:05.986Z,77.82
2019-02-05T13:45:35.876Z,78.00
2019-02-05T13:48:06.655Z,77.43
2019-02-05T13:50:36.200Z,77.38
2019-02-05T13:53:06.271Z,77.49
2019-02-05T13:55:38.209Z,77.27
2019-02-05T13:58:07.502Z,77.22
2019-02-05T14:00:45.253Z,77.43
2019-02-05T14:03:14.453Z,77.52
2019-02-05T14:05:43.737Z,77.00
2019-02-05T14:08:13.125Z,77.09
2019-02-05T14:10:42.470Z,76.83
2019-02-05T14:13:11.653Z,76.72
2019-02-05T14:15:42.055Z,76.68
2019-02-05T14:18:11.978Z,76.63
2019-02-05T14:20:41.238Z,76.89
2019-02-05T14:23:10.443Z,76.88
2019-02-05T14:25:39.723Z,76.51
2019-02-05T14:28:09.342Z,77.20
2019-02-05T14:31:02.177Z,76.93
2019-02-05T14:33:32.176Z,77.21
2019-02-05T14:36:02.356Z,76.96
2019-02-05T14:38:31.554Z,77.11
2019-02-05T14:41:00.770Z,77.20
2019-02-05T14:43:30.012Z,77.64
2019-02-05T14:45:59.244Z,77.00
2019-02-05T14:48:28.489Z,77.20
2019-02-05T14:50:57.699Z,77.26
2019-02-05T14:53:26.953Z,76.97
2019-02-05T14:55:56.240Z,76.82
2019-02-05T14:58:25.465Z,76.37
2019-02-05T15:00:54.877Z,76.22
2019-02-05T15:03:24.059Z,76.11
2019-02-05T15:05:53.754Z,76.24
2019-02-05T15:08:22.918Z,76.38
2019-02-05T15:10:52.540Z,76.49
2019-02-05T15:13:21.853Z,76.57
2019-02-05T15:15:51.051Z,76.72
2019-02-05T15:18:22.296Z,77.13
2019-02-05T15:20:51.784Z,76.67
2019-02-05T15:23:21.580Z,76.26
2019-02-05T15:25:51.147Z,76.19
2019-02-05T15:28:20.415Z,76.42
2019-02-05T15:30:50.027Z,76.43
2019-02-05T15:33:48.293Z,76.26
2019-02-05T15:36:34.897Z,76.69
2019-02-05T15:39:13.785Z,76.79
2019-02-05T15:41:43.015Z,76.74
2019-02-05T15:44:12.556Z,76.85
2019-02-05T15:46:42.663Z,76.53
2019-02-05T15:49:12.060Z,76.61
2019-02-05T15:51:41.312Z,76.60
2019-02-05T15:54:10.543Z,76.82
2019-02-05T15:56:39.711Z,77.02
2019-02-05T15:59:09.389Z,77.41
2019-02-05T16:01:38.672Z,78.09
2019-02-05T16:04:07.867Z,77.98
2019-02-05T16:06:37.085Z,77.97
2019-02-05T16:09:08.805Z,78.24
2019-02-05T16:11:38.006Z,78.12
2019-02-05T16:14:07.650Z,78.20
2019-02-05T16:16:36.901Z,78.33
2019-02-05T16:19:06.077Z,78.41
2019-02-05T16:21:35.503Z,78.51
2019-02-05T16:24:04.790Z,78.61
2019-02-05T16:26:34.054Z,78.67
2019-02-05T16:29:03.620Z,78.56
2019-02-05T16:31:32.822Z,78.66
2019-02-05T16:34:02.502Z,78.32
2019-02-05T16:36:31.715Z,78.52
2019-02-05T16:39:00.885Z,78.47
2019-02-05T16:41:30.202Z,78.57
2019-02-05T16:43:59.676Z,78.60
2019-02-05T16:46:29.074Z,78.45
2019-02-05T16:48:58.463Z,78.51
2019-02-05T16:51:27.634Z,78.53
2019-02-05T16:53:56.962Z,78.97
2019-02-05T16:56:26.126Z,78.97
2019-02-05T16:58:55.364Z,78.92
2019-02-05T17:01:24.640Z,78.75
2019-02-05T17:03:53.871Z,78.69
2019-02-05T17:06:23.156Z,78.79
2019-02-05T17:08:52.309Z,78.99
2019-02-05T17:11:21.730Z,78.99
2019-02-05T17:13:50.888Z,79.25
2019-02-05T17:16:20.183Z,79.41
2019-02-05T17:18:49.563Z,79.47
2019-02-05T17:21:18.753Z,79.53
2019-02-05T17:23:47.926Z,79.80
2019-02-05T17:26:17.175Z,79.77
2019-02-05T17:28:46.341Z,79.74
2019-02-05T17:31:15.559Z,79.88
2019-02-05T17:33:44.866Z,79.80
2019-02-05T17:36:14.143Z,79.84
2019-02-05T17:38:43.411Z,79.89
2019-02-05T17:41:12.642Z,79.94
2019-02-05T17:43:41.891Z,79.92
2019-02-05T17:46:11.087Z,80.12
2019-02-05T17:48:40.513Z,80.12
2019-02-05T17:51:09.929Z,80.28
2019-02-05T17:53:39.174Z,80.30
2019-02-05T17:56:08.452Z,80.45
2019-02-05T17:58:37.738Z,80.18
2019-02-05T18:01:10.216Z,80.21
2019-02-05T18:03:39.653Z,80.22
2019-02-05T18:06:08.962Z,80.33
2019-02-05T18:08:38.314Z,80.42
2019-02-05T18:11:08.140Z,80.41
2019-02-05T18:13:37.603Z,80.39
2019-02-05T18:16:27.714Z,80.60
2019-02-05T18:18:56.955Z,80.58
2019-02-05T18:21:28.444Z,81.08
2019-02-05T18:23:57.715Z,80.99
2019-02-05T18:26:27.041Z,81.08
2019-02-05T18:28:56.270Z,81.08
2019-02-05T18:31:27.168Z,81.12
2019-02-05T18:33:56.528Z,81.43
2019-02-05T18:36:28.566Z,81.38
2019-02-05T18:38:58.206Z,81.24
2019-02-05T18:41:27.502Z,81.31
2019-02-05T18:43:56.796Z,81.45
2019-02-05T18:46:26.299Z,81.23
2019-02-05T18:49:04.539Z,81.23
2019-02-05T18:51:26.513Z,81.36
2019-02-05T18:53:56.002Z,81.48
2019-02-05T18:56:25.436Z,81.36
2019-02-05T18:58:54.998Z,81.33
2019-02-05T19:01:24.444Z,81.53
2019-02-05T19:03:53.844Z,81.46
2019-02-05T19:06:24.321Z,81.17
2019-02-05T19:08:56.285Z,80.91
2019-02-05T19:11:25.611Z,80.52
2019-02-05T19:13:55.099Z,80.56
2019-02-05T19:16:25.229Z,80.33
2019-02-05T19:18:54.764Z,80.29
2019-02-05T19:21:24.097Z,80.07
2019-02-05T19:24:03.530Z,80.11
2019-02-05T19:26:41.139Z,79.90
2019-02-05T19:29:18.478Z,79.81
2019-02-05T19:31:42.482Z,80.04
2019-02-05T19:34:13.305Z,79.87
2019-02-05T19:36:44.227Z,79.91
2019-02-05T19:39:13.581Z,79.87
2019-02-05T19:41:45.513Z,80.02
2019-02-05T19:44:14.810Z,80.18
2019-02-05T19:47:05.371Z,80.21
2019-02-05T19:49:39.818Z,80.20
2019-02-05T19:52:09.307Z,80.02
2019-02-05T19:54:38.724Z,79.76
2019-02-05T19:57:08.025Z,79.62
2019-02-05T19:59:38.495Z,79.65
2019-02-05T20:02:08.763Z,79.41
2019-02-05T20:04:38.166Z,79.50
2019-02-05T20:07:08.196Z,79.63
2019-02-05T20:09:37.626Z,79.55
2019-02-05T20:12:08.154Z,79.48
2019-02-05T20:14:37.572Z,79.45
2019-02-05T20:17:07.560Z,79.51
2019-02-05T20:19:36.893Z,79.60
2019-02-05T20:22:06.529Z,79.74
2019-02-05T20:24:37.116Z,79.78
2019-02-05T20:27:06.694Z,79.84
2019-02-05T20:29:36.255Z,79.92
2019-02-05T20:32:08.583Z,79.65
2019-02-05T20:34:37.966Z,79.51
2019-02-05T20:37:07.673Z,79.52
2019-02-05T20:39:37.482Z,79.59
2019-02-05T20:42:07.620Z,79.33
2019-02-05T20:44:37.037Z,79.43
2019-02-05T20:47:06.790Z,79.25
2019-02-05T20:49:37.629Z,78.86
2019-02-05T20:52:07.376Z,79.03
2019-02-05T20:54:36.551Z,79.19
2019-02-05T20:57:06.067Z,79.11
2019-02-05T20:59:35.381Z,78.95
2019-02-05T21:02:04.770Z,79.13
2019-02-05T21:04:35.555Z,79.16
2019-02-05T21:07:07.811Z,79.29
2019-02-05T21:09:37.187Z,79.26
2019-02-05T21:12:06.742Z,79.28
2019-02-05T21:14:36.002Z,79.34
2019-02-05T21:17:07.831Z,79.16
2019-02-05T21:19:37.134Z,79.27
2019-02-05T21:22:08.941Z,79.00
2019-02-05T21:24:38.351Z,78.89
2019-02-05T21:27:07.823Z,79.01
2019-02-05T21:29:37.413Z,79.30
2019-02-05T21:32:06.645Z,79.41
2019-02-05T21:34:37.832Z,79.78
2019-02-05T21:37:09.434Z,79.73
2019-02-05T21:39:38.777Z,79.22
2019-02-05T21:42:08.079Z,79.27
2019-02-05T21:44:37.280Z,79.65
2019-02-05T21:47:06.563Z,79.99
2019-02-05T21:49:35.876Z,79.92
2019-02-05T21:52:05.184Z,79.86
2019-02-05T21:54:34.374Z,79.80
2019-02-05T21:57:03.694Z,79.34
2019-02-05T21:59:32.919Z,79.42
2019-02-05T22:02:02.180Z,79.37
2019-02-05T22:04:31.649Z,79.15
2019-02-05T22:07:00.878Z,79.13
2019-02-05T22:09:30.073Z,79.27
2019-02-05T22:11:59.415Z,79.27
2019-02-05T22:14:28.665Z,79.38
2019-02-05T22:16:57.885Z,79.30
2019-02-05T22:19:27.426Z,79.42
2019-02-05T22:21:56.635Z,79.55
2019-02-05T22:24:25.793Z,79.75
2019-02-05T22:26:54.972Z,79.45
2019-02-05T22:29:24.190Z,79.42
2019-02-05T22:31:53.396Z,79.54
2019-02-05T22:34:22.854Z,79.70
2019-02-05T22:36:52.017Z,79.67
2019-02-05T22:39:21.615Z,79.46
2019-02-05T22:41:50.856Z,79.62
2019-02-05T22:44:20.271Z,79.59
2019-02-05T22:46:49.828Z,79.37
2019-02-05T22:49:19.042Z,79.30
2019-02-05T22:51:48.577Z,79.50
2019-02-05T22:54:17.864Z,79.43
2019-02-05T22:56:47.449Z,79.48
2019-02-05T22:59:17.146Z,79.53
2019-02-05T23:01:55.599Z,79.63
2019-02-05T23:04:51.307Z,79.69
2019-02-05T23:07:22.360Z,79.95
2019-02-05T23:10:21.949Z,80.20
